createdAt,value
2017-08-03T00:00:15.862Z,1007.53
2017-08-03T00:01:15.851Z,1007.55
2017-08-03T00:02:15.840Z,1007.55
2017-08-03T00:03:15.822Z,1007.5
2017-08-03T00:04:15.810Z,1007.42
2017-08-03T00:05:15.800Z,1007.36
2017-08-03T00:06:15.779Z,1007.37
2017-08-03T00:07:15.767Z,1007.4
2017-08-03T00:08:15.750Z,1007.39
2017-08-03T00:09:15.739Z,1007.51
2017-08-03T00:10:15.721Z,1007.56
2017-08-03T00:11:15.705Z,1007.64
2017-08-03T00:12:15.700Z,1007.7
2017-08-03T00:13:15.678Z,1007.74
2017-08-03T00:14:15.670Z,1007.7
2017-08-03T00:15:15.649Z,1007.69
2017-08-03T00:16:15.639Z,1007.72
2017-08-03T00:17:15.620Z,1007.71
2017-08-03T00:18:15.610Z,1007.78
2017-08-03T00:19:15.603Z,1007.76
2017-08-03T00:20:15.579Z,1007.72
2017-08-03T00:21:15.571Z,1007.7
2017-08-03T00:22:15.547Z,1007.66
2017-08-03T00:23:15.538Z,1007.61
2017-08-03T00:24:15.524Z,1007.58
2017-08-03T00:25:15.510Z,1007.56
2017-08-03T00:26:15.499Z,1007.5
2017-08-03T00:27:15.480Z,1007.51
2017-08-03T00:28:15.468Z,1007.46
2017-08-03T00:29:15.452Z,1007.48
2017-08-03T00:30:15.440Z,1007.48
2017-08-03T00:31:15.424Z,1007.54
2017-08-03T00:32:15.412Z,1007.54
2017-08-03T00:33:15.400Z,1007.48
2017-08-03T00:34:15.380Z,1007.49
2017-08-03T00:35:15.367Z,1007.48
2017-08-03T00:36:15.360Z,1007.46
2017-08-03T00:37:15.340Z,1007.38
2017-08-03T00:38:15.325Z,1007.41
2017-08-03T00:39:15.310Z,1007.37
2017-08-03T00:40:15.301Z,1007.32
2017-08-03T00:41:15.280Z,1007.24
2017-08-03T00:42:15.267Z,1007.28
2017-08-03T00:43:15.253Z,1007.27
2017-08-03T00:44:15.237Z,1007.31
2017-08-03T00:45:15.225Z,1007.31
2017-08-03T00:46:15.212Z,1007.28
2017-08-03T00:47:15.202Z,1007.2
2017-08-03T00:48:15.185Z,1007.21
2017-08-03T00:49:15.169Z,1007.16
2017-08-03T00:50:15.160Z,1007.16
2017-08-03T00:51:15.141Z,1007.06
2017-08-03T00:52:15.121Z,1006.93
2017-08-03T00:53:15.110Z,1006.94
2017-08-03T00:54:15.104Z,1006.89
2017-08-03T00:55:15.080Z,1006.83
2017-08-03T00:56:15.073Z,1006.81
2017-08-03T00:57:15.050Z,1006.74
2017-08-03T00:58:15.039Z,1006.8
2017-08-03T00:59:15.020Z,1006.85
2017-08-03T01:00:15.009Z,1006.88
2017-08-03T01:01:14.990Z,1006.89
2017-08-03T01:02:14.983Z,1006.9
2017-08-03T01:03:14.969Z,1006.86
2017-08-03T01:04:14.950Z,1006.85
2017-08-03T01:05:14.932Z,1006.82
2017-08-03T01:06:14.919Z,1006.83
2017-08-03T01:07:14.906Z,1006.82
2017-08-03T01:08:14.892Z,1006.84
2017-08-03T01:09:14.881Z,1006.79
2017-08-03T01:10:14.871Z,1006.74
2017-08-03T01:11:14.852Z,1006.74
2017-08-03T01:12:14.836Z,1006.78
2017-08-03T01:13:14.821Z,1006.79
2017-08-03T01:14:14.809Z,1006.8
2017-08-03T01:15:14.793Z,1006.8
2017-08-03T01:16:14.779Z,1006.82
2017-08-03T01:17:14.764Z,1006.72
2017-08-03T01:18:14.750Z,1006.66
2017-08-03T01:19:14.735Z,1006.63
2017-08-03T01:20:14.721Z,1006.58
2017-08-03T01:21:14.710Z,1006.53
2017-08-03T01:22:14.698Z,1006.5
2017-08-03T01:23:14.682Z,1006.47
2017-08-03T01:24:14.665Z,1006.45
2017-08-03T01:25:14.651Z,1006.44
2017-08-03T01:26:14.639Z,1006.4
2017-08-03T01:27:14.620Z,1006.43
2017-08-03T01:28:14.611Z,1006.43
2017-08-03T01:29:14.600Z,1006.4
2017-08-03T01:30:14.579Z,1006.45
2017-08-03T01:31:14.563Z,1006.47
2017-08-03T01:32:14.549Z,1006.41
2017-08-03T01:33:14.538Z,1006.44
2017-08-03T01:34:14.522Z,1006.41
2017-08-03T01:35:14.512Z,1006.39
2017-08-03T01:36:14.491Z,1006.39
2017-08-03T01:37:14.480Z,1006.37
2017-08-03T01:38:14.470Z,1006.3
2017-08-03T01:39:14.450Z,1006.3
2017-08-03T01:40:14.440Z,1006.25
2017-08-03T01:41:14.419Z,1006.18
2017-08-03T01:42:14.410Z,1006.18
2017-08-03T01:43:14.390Z,1006.15
2017-08-03T01:44:14.375Z,1006.12
2017-08-03T01:45:14.359Z,1006.17
2017-08-03T01:46:14.350Z,1006.13
2017-08-03T01:47:14.331Z,1006.15
2017-08-03T01:48:14.320Z,1006.15
2017-08-03T01:49:14.301Z,1006.16
2017-08-03T01:50:14.289Z,1006.1
2017-08-03T01:51:14.277Z,1006.1
2017-08-03T01:52:14.259Z,1006.06
2017-08-03T01:53:14.241Z,1006.04
2017-08-03T01:54:14.226Z,1005.94
2017-08-03T01:55:14.221Z,1005.94
2017-08-03T01:56:14.199Z,1005.92
2017-08-03T01:57:14.185Z,1005.88
2017-08-03T01:58:14.170Z,1005.83
2017-08-03T01:59:14.156Z,1005.84
2017-08-03T02:00:14.141Z,1005.82
2017-08-03T02:01:14.133Z,1005.77
2017-08-03T02:02:14.110Z,1005.71
2017-08-03T02:03:14.105Z,1005.73
2017-08-03T02:04:14.079Z,1005.74
2017-08-03T02:05:14.070Z,1005.74
2017-08-03T02:06:14.056Z,1005.74
2017-08-03T02:07:14.052Z,1005.72
2017-08-03T02:08:14.026Z,1005.7
2017-08-03T02:09:14.016Z,1005.7
2017-08-03T02:10:13.994Z,1005.7
2017-08-03T02:11:13.985Z,1005.68
2017-08-03T02:12:13.971Z,1005.71
2017-08-03T02:13:13.954Z,1005.7
2017-08-03T02:14:13.941Z,1005.6
2017-08-03T02:15:13.928Z,1005.46
2017-08-03T02:16:13.910Z,1005.44
2017-08-03T02:17:13.901Z,1005.51
2017-08-03T02:18:13.880Z,1005.54
2017-08-03T02:19:13.869Z,1005.69
2017-08-03T02:20:13.850Z,1005.79
2017-08-03T02:21:13.960Z,1005.8
2017-08-03T02:22:13.818Z,1005.81
2017-08-03T02:23:13.911Z,1005.77
2017-08-03T02:24:13.791Z,1005.72
2017-08-03T02:25:13.777Z,1005.74
2017-08-03T02:26:13.761Z,1005.77
2017-08-03T02:27:13.849Z,1005.71
2017-08-03T02:28:13.733Z,1005.59
2017-08-03T02:29:13.713Z,1005.54
2017-08-03T02:30:13.700Z,1005.5
2017-08-03T02:31:13.689Z,1005.45
2017-08-03T02:32:13.670Z,1005.51
2017-08-03T02:33:13.654Z,1005.56
2017-08-03T02:34:13.640Z,1005.6
2017-08-03T02:35:13.624Z,1005.59
2017-08-03T02:36:13.612Z,1005.61
2017-08-03T02:37:13.602Z,1005.71
2017-08-03T02:38:13.581Z,1005.77
2017-08-03T02:39:13.571Z,1005.74
2017-08-03T02:40:13.549Z,1005.72
2017-08-03T02:41:13.539Z,1005.69
2017-08-03T02:42:13.520Z,1005.66
2017-08-03T02:43:13.510Z,1005.66
2017-08-03T02:44:13.490Z,1005.68
2017-08-03T02:45:13.481Z,1005.64
2017-08-03T02:46:13.462Z,1005.6
2017-08-03T02:47:13.452Z,1005.55
2017-08-03T02:48:13.434Z,1005.45
2017-08-03T02:49:13.421Z,1005.44
2017-08-03T02:50:13.406Z,1005.42
2017-08-03T02:51:13.390Z,1005.39
2017-08-03T02:52:13.384Z,1005.42
2017-08-03T02:53:13.361Z,1005.4
2017-08-03T02:54:13.354Z,1005.37
2017-08-03T02:55:13.331Z,1005.39
2017-08-03T02:56:13.322Z,1005.39
2017-08-03T02:57:13.310Z,1005.38
2017-08-03T02:58:13.291Z,1005.32
2017-08-03T02:59:13.281Z,1005.33
2017-08-03T03:00:13.261Z,1005.25
2017-08-03T03:01:13.250Z,1005.22
2017-08-03T03:02:13.229Z,1005.15
2017-08-03T03:03:13.218Z,1005.12
2017-08-03T03:04:13.201Z,1005.09
2017-08-03T03:05:13.192Z,1005.16
2017-08-03T03:06:13.169Z,1005.22
2017-08-03T03:07:13.162Z,1005.25
2017-08-03T03:08:13.147Z,1005.24
2017-08-03T03:09:13.131Z,1005.25
2017-08-03T03:10:13.121Z,1005.26
2017-08-03T03:11:13.100Z,1005.35
2017-08-03T03:12:13.085Z,1005.37
2017-08-03T03:13:13.070Z,1005.32
2017-08-03T03:14:13.056Z,1005.19
2017-08-03T03:15:13.041Z,1005.15
2017-08-03T03:16:13.031Z,1005.12
2017-08-03T03:17:13.009Z,1005.19
2017-08-03T03:18:12.996Z,1005.08
2017-08-03T03:19:12.983Z,1005.02
2017-08-03T03:20:12.966Z,1004.99
2017-08-03T03:21:12.954Z,1004.98
2017-08-03T03:22:12.940Z,1005.04
2017-08-03T03:23:12.926Z,1005.05
2017-08-03T03:24:12.910Z,1005.02
2017-08-03T03:25:12.900Z,1005.06
2017-08-03T03:26:12.880Z,1005.11
2017-08-03T03:27:12.869Z,1005.07
2017-08-03T03:28:12.850Z,1005.08
2017-08-03T03:29:12.841Z,1005.05
2017-08-03T03:30:12.822Z,1005.02
2017-08-03T03:31:12.811Z,1004.99
2017-08-03T03:32:12.789Z,1004.92
2017-08-03T03:33:12.773Z,1004.87
2017-08-03T03:34:12.758Z,1004.82
2017-08-03T03:35:12.748Z,1004.8
2017-08-03T03:36:12.729Z,1004.79
2017-08-03T03:37:12.719Z,1004.72
2017-08-03T03:38:12.702Z,1004.7
2017-08-03T03:39:12.690Z,1004.64
2017-08-03T03:40:12.672Z,1004.6
2017-08-03T03:41:12.662Z,1004.55
2017-08-03T03:42:12.641Z,1004.52
2017-08-03T03:43:12.631Z,1004.45
2017-08-03T03:44:12.610Z,1004.39
2017-08-03T03:45:12.599Z,1004.33
2017-08-03T03:46:12.582Z,1004.34
2017-08-03T03:47:12.568Z,1004.26
2017-08-03T03:48:12.549Z,1004.19
2017-08-03T03:49:12.536Z,1004.19
2017-08-03T03:50:12.520Z,1004.21
2017-08-03T03:51:12.503Z,1004.19
2017-08-03T03:52:12.492Z,1004.19
2017-08-03T03:53:12.481Z,1004.18
2017-08-03T03:54:12.470Z,1004.15
2017-08-03T03:55:12.453Z,1004.11
2017-08-03T03:56:12.432Z,1004.09
2017-08-03T03:57:12.416Z,1004.09
2017-08-03T03:58:12.410Z,1004.02
2017-08-03T03:59:12.400Z,1003.97
2017-08-03T04:00:12.372Z,1003.96
2017-08-03T04:01:12.359Z,1003.91
2017-08-03T04:02:12.353Z,1003.85
2017-08-03T04:03:12.325Z,1003.87
2017-08-03T04:04:12.310Z,1003.91
2017-08-03T04:05:12.295Z,1003.97
2017-08-03T04:06:12.281Z,1003.97
2017-08-03T04:07:12.263Z,1003.97
2017-08-03T04:08:12.260Z,1003.91
2017-08-03T04:09:12.232Z,1003.91
2017-08-03T04:10:12.324Z,1003.86
2017-08-03T04:11:12.216Z,1003.84
2017-08-03T04:12:12.260Z,1003.71
2017-08-03T04:13:12.184Z,1003.74
2017-08-03T04:14:12.228Z,1003.78
2017-08-03T04:15:12.146Z,1003.77
2017-08-03T04:16:12.138Z,1003.81
2017-08-03T04:17:12.121Z,1003.83
2017-08-03T04:18:12.102Z,1003.87
2017-08-03T04:19:12.108Z,1003.93
2017-08-03T04:20:12.074Z,1003.92
2017-08-03T04:21:12.059Z,1003.99
2017-08-03T04:22:12.046Z,1003.97
2017-08-03T04:23:12.030Z,1003.93
2017-08-03T04:24:12.021Z,1003.88
2017-08-03T04:25:11.998Z,1003.8
2017-08-03T04:26:11.992Z,1003.79
2017-08-03T04:27:11.968Z,1003.74
2017-08-03T04:28:11.960Z,1003.76
2017-08-03T04:29:11.940Z,1003.7
2017-08-03T04:30:11.928Z,1003.63
2017-08-03T04:31:11.912Z,1003.59
2017-08-03T04:32:11.898Z,1003.55
2017-08-03T04:33:11.882Z,1003.62
2017-08-03T04:34:11.866Z,1003.61
2017-08-03T04:35:11.853Z,1003.62
2017-08-03T04:36:11.840Z,1003.61
2017-08-03T04:37:11.826Z,1003.58
2017-08-03T04:38:11.808Z,1003.57
2017-08-03T04:39:11.794Z,1003.57
2017-08-03T04:40:11.779Z,1003.59
2017-08-03T04:41:11.761Z,1003.56
2017-08-03T04:42:11.749Z,1003.57
2017-08-03T04:43:11.740Z,1003.63
2017-08-03T04:44:11.720Z,1003.72
2017-08-03T04:45:11.709Z,1003.83
2017-08-03T04:46:11.694Z,1003.9
2017-08-03T04:47:11.677Z,1003.94
2017-08-03T04:48:11.662Z,1003.97
2017-08-03T04:49:11.651Z,1004.03
2017-08-03T04:50:11.638Z,1004.04
2017-08-03T04:51:11.620Z,1004.04
2017-08-03T04:52:11.606Z,1003.99
2017-08-03T04:53:11.592Z,1003.97
2017-08-03T04:54:11.579Z,1003.96
2017-08-03T04:55:11.568Z,1004.01
2017-08-03T04:56:11.551Z,1004.03
2017-08-03T04:57:11.536Z,1004.04
2017-08-03T04:58:11.520Z,1003.95
2017-08-03T04:59:11.506Z,1003.9
2017-08-03T05:00:11.490Z,1003.81
2017-08-03T05:01:11.480Z,1003.72
2017-08-03T05:02:11.464Z,1003.64
2017-08-03T05:03:11.451Z,1003.65
2017-08-03T05:04:11.435Z,1003.66
2017-08-03T05:05:11.426Z,1003.7
2017-08-03T05:06:11.408Z,1003.7
2017-08-03T05:07:11.396Z,1003.72
2017-08-03T05:08:11.378Z,1003.73
2017-08-03T05:09:11.363Z,1003.7
2017-08-03T05:10:11.354Z,1003.7
2017-08-03T05:11:11.342Z,1003.67
2017-08-03T05:12:11.329Z,1003.65
2017-08-03T05:13:11.310Z,1003.59
2017-08-03T05:14:11.295Z,1003.6
2017-08-03T05:15:11.283Z,1003.61
2017-08-03T05:16:11.268Z,1003.62
2017-08-03T05:17:11.249Z,1003.61
2017-08-03T05:18:11.241Z,1003.57
2017-08-03T05:19:11.225Z,1003.5
2017-08-03T05:20:11.210Z,1003.39
2017-08-03T05:21:11.200Z,1003.34
2017-08-03T05:22:11.184Z,1003.31
2017-08-03T05:23:11.172Z,1003.3
2017-08-03T05:24:11.153Z,1003.29
2017-08-03T05:25:11.140Z,1003.3
2017-08-03T05:26:11.131Z,1003.28
2017-08-03T05:27:11.110Z,1003.26
2017-08-03T05:28:11.098Z,1003.22
2017-08-03T05:29:11.087Z,1003.19
2017-08-03T05:30:11.070Z,1003.27
2017-08-03T05:31:11.053Z,1003.23
2017-08-03T05:32:11.040Z,1003.24
2017-08-03T05:33:11.029Z,1003.19
2017-08-03T05:34:11.011Z,1003.2
2017-08-03T05:35:11.001Z,1003.11
2017-08-03T05:36:10.991Z,1003.12
2017-08-03T05:37:10.971Z,1003.13
2017-08-03T05:38:10.963Z,1003.15
2017-08-03T05:39:10.950Z,1003.14
2017-08-03T05:40:10.927Z,1003.18
2017-08-03T05:41:10.919Z,1003.22
2017-08-03T05:42:10.900Z,1003.18
2017-08-03T05:43:10.892Z,1003.17
2017-08-03T05:44:10.871Z,1003.21
2017-08-03T05:45:10.860Z,1003.23
2017-08-03T05:46:10.850Z,1003.25
2017-08-03T05:47:10.831Z,1003.31
2017-08-03T05:48:10.837Z,1003.31
2017-08-03T05:49:10.801Z,1003.25
2017-08-03T05:50:10.786Z,1003.27
2017-08-03T05:51:10.776Z,1003.24
2017-08-03T05:52:10.757Z,1003.23
2017-08-03T05:53:10.843Z,1003.22
2017-08-03T05:54:10.732Z,1003.28
2017-08-03T05:55:10.773Z,1003.28
2017-08-03T05:56:10.701Z,1003.25
2017-08-03T05:57:10.694Z,1003.2
2017-08-03T05:58:10.672Z,1003.18
2017-08-03T05:59:10.710Z,1003.2
2017-08-03T06:00:10.648Z,1003.19
2017-08-03T06:01:10.631Z,1003.16
2017-08-03T06:02:10.613Z,1003.17
2017-08-03T06:03:10.601Z,1003.15
2017-08-03T06:04:10.590Z,1003.14
2017-08-03T06:05:10.569Z,1003.15
2017-08-03T06:06:10.557Z,1003.16
2017-08-03T06:07:10.596Z,1003.13
2017-08-03T06:08:10.587Z,1003.15
2017-08-03T06:09:10.514Z,1003.1
2017-08-03T06:10:10.506Z,1003.12
2017-08-03T06:11:10.486Z,1003.13
2017-08-03T06:12:10.469Z,1003.1
2017-08-03T06:13:10.458Z,1003.12
2017-08-03T06:14:10.450Z,1003.14
2017-08-03T06:15:10.431Z,1003.14
2017-08-03T06:16:10.412Z,1003.17
2017-08-03T06:17:10.402Z,1003.13
2017-08-03T06:18:10.393Z,1003.14
2017-08-03T06:19:10.372Z,1003.14
2017-08-03T06:20:10.354Z,1003.13
2017-08-03T06:21:10.341Z,1003.11
2017-08-03T06:22:10.539Z,1003.08
2017-08-03T06:23:10.313Z,1003.06
2017-08-03T06:24:10.304Z,1003.04
2017-08-03T06:25:10.295Z,1002.98
2017-08-03T06:26:10.273Z,1003.01
2017-08-03T06:27:10.256Z,1002.98
2017-08-03T06:28:10.243Z,1003.04
2017-08-03T06:29:10.225Z,1002.93
2017-08-03T06:30:10.215Z,1002.9
2017-08-03T06:31:10.202Z,1002.9
2017-08-03T06:32:10.185Z,1002.87
2017-08-03T06:33:10.173Z,1002.85
2017-08-03T06:34:10.154Z,1002.85
2017-08-03T06:35:10.141Z,1002.8
2017-08-03T06:36:10.129Z,1002.83
2017-08-03T06:37:10.113Z,1002.85
2017-08-03T06:38:10.106Z,1002.89
2017-08-03T06:39:10.084Z,1002.88
2017-08-03T06:40:10.077Z,1002.88
2017-08-03T06:41:10.056Z,1002.92
2017-08-03T06:42:10.044Z,1002.98
2017-08-03T06:43:10.026Z,1002.96
2017-08-03T06:44:10.013Z,1002.99
2017-08-03T06:45:10.002Z,1003.01
2017-08-03T06:46:09.985Z,1003.04
2017-08-03T06:47:09.970Z,1003.01
2017-08-03T06:48:09.955Z,1002.99
2017-08-03T06:49:09.944Z,1002.96
2017-08-03T06:50:09.934Z,1002.95
2017-08-03T06:51:09.915Z,1002.94
2017-08-03T06:52:09.898Z,1002.92
2017-08-03T06:53:09.886Z,1002.91
2017-08-03T06:54:09.870Z,1002.96
2017-08-03T06:55:09.859Z,1003.03
2017-08-03T06:56:09.846Z,1003.06
2017-08-03T06:57:09.834Z,1003.1
2017-08-03T06:58:09.826Z,1003.12
2017-08-03T06:59:09.804Z,1003.16
2017-08-03T07:00:09.796Z,1003.22
2017-08-03T07:01:09.774Z,1003.22
2017-08-03T07:02:09.768Z,1003.17
2017-08-03T07:03:09.759Z,1003.18
2017-08-03T07:04:09.746Z,1003.09
2017-08-03T07:05:09.720Z,1003.08
2017-08-03T07:06:09.719Z,1003.09
2017-08-03T07:07:09.696Z,1003.12
2017-08-03T07:08:09.686Z,1003.1
2017-08-03T07:09:09.677Z,1003.1
2017-08-03T07:10:09.656Z,1003.09
2017-08-03T07:11:09.645Z,1003.06
2017-08-03T07:12:09.626Z,1003.09
2017-08-03T07:13:09.611Z,1003.04
2017-08-03T07:14:09.608Z,1002.97
2017-08-03T07:15:09.587Z,1003.09
2017-08-03T07:16:09.582Z,1003.06
2017-08-03T07:17:09.563Z,1003.12
2017-08-03T07:18:09.547Z,1003.09
2017-08-03T07:19:09.533Z,1003.1
2017-08-03T07:20:09.531Z,1003.12
2017-08-03T07:21:09.514Z,1003.15
2017-08-03T07:22:09.497Z,1003.16
2017-08-03T07:23:09.482Z,1003.18
2017-08-03T07:24:09.467Z,1003.23
2017-08-03T07:25:09.457Z,1003.16
2017-08-03T07:26:09.447Z,1003.2
2017-08-03T07:27:09.439Z,1003.12
2017-08-03T07:28:09.427Z,1003.08
2017-08-03T07:29:09.403Z,1003.17
2017-08-03T07:30:09.411Z,1003.14
2017-08-03T07:31:09.383Z,1003.2
2017-08-03T07:32:09.373Z,1003.15
2017-08-03T07:33:09.353Z,1003.13
2017-08-03T07:34:09.346Z,1003.05
2017-08-03T07:35:09.336Z,1003.12
2017-08-03T07:36:09.324Z,1003.11
2017-08-03T07:37:09.315Z,1003.08
2017-08-03T07:38:09.294Z,1003.04
2017-08-03T07:39:09.280Z,1003.08
2017-08-03T07:40:09.275Z,1003.1
2017-08-03T07:41:09.265Z,1002.98
2017-08-03T07:42:09.255Z,1003.04
2017-08-03T07:43:09.235Z,1002.99
2017-08-03T07:44:09.223Z,1002.99
2017-08-03T07:45:09.214Z,1002.96
2017-08-03T07:46:09.198Z,1002.95
2017-08-03T07:47:09.189Z,1002.93
2017-08-03T07:48:09.182Z,1002.9
2017-08-03T07:49:09.167Z,1002.82
2017-08-03T07:50:09.153Z,1002.88
2017-08-03T07:51:09.141Z,1002.9
2017-08-03T07:52:09.134Z,1002.85
2017-08-03T07:53:09.123Z,1002.85
2017-08-03T07:54:09.107Z,1002.88
2017-08-03T07:55:09.096Z,1002.91
2017-08-03T07:56:09.094Z,1002.96
2017-08-03T07:57:09.073Z,1003.16
2017-08-03T07:58:09.061Z,1003.58
2017-08-03T07:59:09.059Z,1004.21
2017-08-03T08:00:09.043Z,1004.09
2017-08-03T08:01:09.029Z,1004.29
2017-08-03T08:02:09.020Z,1004.2
2017-08-03T08:03:09.010Z,1004.18
2017-08-03T08:04:08.999Z,1003.23
2017-08-03T08:05:08.991Z,1003.21
2017-08-03T08:06:08.975Z,1003.39
2017-08-03T08:07:08.970Z,1004.3
2017-08-03T08:08:08.956Z,1004.33
2017-08-03T08:09:08.971Z,1004.25
2017-08-03T08:10:08.957Z,1004.44
2017-08-03T08:11:08.930Z,1004.58
2017-08-03T08:12:08.920Z,1004.58
2017-08-03T08:13:08.912Z,1004.17
2017-08-03T08:14:08.901Z,1003.73
2017-08-03T08:15:08.900Z,1003.38
2017-08-03T08:16:08.885Z,1003.46
2017-08-03T08:17:08.884Z,1003.13
2017-08-03T08:18:08.869Z,1003.35
2017-08-03T08:19:08.962Z,1003.06
2017-08-03T08:20:08.849Z,1003.1
2017-08-03T08:21:08.859Z,1003.04
2017-08-03T08:22:08.836Z,1003.1
2017-08-03T08:23:08.926Z,1003
2017-08-03T08:24:08.817Z,1003.1
2017-08-03T08:25:08.818Z,1003.07
2017-08-03T08:26:08.799Z,1003.09
2017-08-03T08:27:08.842Z,1003.06
2017-08-03T08:28:08.780Z,1002.97
2017-08-03T08:29:08.797Z,1003.07
2017-08-03T08:30:08.767Z,1003.13
2017-08-03T08:31:08.754Z,1003.09
2017-08-03T08:32:08.749Z,1003.14
2017-08-03T08:33:08.747Z,1003.11
2017-08-03T08:34:08.729Z,1003.06
2017-08-03T08:35:08.719Z,1003.06
2017-08-03T08:36:08.719Z,1003.08
2017-08-03T08:37:08.696Z,1003.1
2017-08-03T08:38:08.692Z,1003.04
2017-08-03T08:39:08.677Z,1003.08
2017-08-03T08:40:08.667Z,1003.05
2017-08-03T08:41:08.660Z,1003.03
2017-08-03T08:42:08.647Z,1003.02
2017-08-03T08:43:08.637Z,1003.04
2017-08-03T08:44:08.627Z,1003.05
2017-08-03T08:45:08.618Z,1002.95
2017-08-03T08:46:08.609Z,1003.08
2017-08-03T08:47:08.601Z,1003.02
2017-08-03T08:48:08.585Z,1003.05
2017-08-03T08:49:08.578Z,1003.03
2017-08-03T08:50:08.566Z,1003.02
2017-08-03T08:51:08.553Z,1003.09
2017-08-03T08:52:08.546Z,1003.05
2017-08-03T08:53:08.535Z,1002.99
2017-08-03T08:54:08.526Z,1002.91
2017-08-03T08:55:08.515Z,1002.93
2017-08-03T08:56:08.505Z,1002.9
2017-08-03T08:57:08.488Z,1002.91
2017-08-03T08:58:08.481Z,1002.92
2017-08-03T08:59:08.468Z,1002.94
2017-08-03T09:00:08.459Z,1002.88
2017-08-03T09:01:08.447Z,1003.03
2017-08-03T09:02:08.438Z,1002.92
2017-08-03T09:03:08.429Z,1002.8
2017-08-03T09:04:08.412Z,1002.81
2017-08-03T09:05:08.399Z,1002.86
2017-08-03T09:06:08.398Z,1002.82
2017-08-03T09:07:08.377Z,1002.75
2017-08-03T09:08:08.380Z,1002.79
2017-08-03T09:09:08.367Z,1002.68
2017-08-03T09:10:08.350Z,1002.83
2017-08-03T09:11:08.339Z,1002.9
2017-08-03T09:12:08.327Z,1002.84
2017-08-03T09:13:08.318Z,1002.84
2017-08-03T09:14:08.318Z,1002.88
2017-08-03T09:15:08.289Z,1002.87
2017-08-03T09:16:08.329Z,1002.87
2017-08-03T09:17:08.268Z,1002.89
2017-08-03T09:18:08.258Z,1002.96
2017-08-03T09:19:08.248Z,1002.84
2017-08-03T09:20:08.238Z,1002.93
2017-08-03T09:21:08.228Z,1002.83
2017-08-03T09:22:08.210Z,1002.94
2017-08-03T09:23:08.197Z,1003.09
2017-08-03T09:24:08.199Z,1003.06
2017-08-03T09:25:08.177Z,1002.89
2017-08-03T09:26:08.166Z,1003.07
2017-08-03T09:27:08.158Z,1003.16
2017-08-03T09:28:08.146Z,1002.96
2017-08-03T09:29:08.137Z,1002.93
2017-08-03T09:30:08.135Z,1002.95
2017-08-03T09:31:08.129Z,1002.93
2017-08-03T09:32:08.119Z,1002.96
2017-08-03T09:33:08.105Z,1002.94
2017-08-03T09:34:08.101Z,1002.99
2017-08-03T09:35:08.099Z,1002.92
2017-08-03T09:36:08.088Z,1002.92
2017-08-03T09:37:08.078Z,1002.92
2017-08-03T09:38:08.072Z,1002.97
2017-08-03T09:39:08.068Z,1002.97
2017-08-03T09:40:08.058Z,1002.85
2017-08-03T09:41:08.056Z,1002.7
2017-08-03T09:42:08.054Z,1002.71
2017-08-03T09:43:08.048Z,1002.66
2017-08-03T09:44:08.053Z,1002.73
2017-08-03T09:45:08.031Z,1002.68
2017-08-03T09:46:08.028Z,1002.68
2017-08-03T09:47:08.018Z,1002.73
2017-08-03T09:48:08.014Z,1002.7
2017-08-03T09:49:08.008Z,1002.64
2017-08-03T09:50:08.001Z,1002.66
2017-08-03T09:51:07.991Z,1002.62
2017-08-03T09:52:07.989Z,1002.62
2017-08-03T09:53:07.977Z,1002.66
2017-08-03T09:54:07.977Z,1002.61
2017-08-03T09:55:07.976Z,1002.54
2017-08-03T09:56:07.957Z,1002.52
2017-08-03T09:57:07.949Z,1002.6
2017-08-03T09:58:07.948Z,1002.52
2017-08-03T09:59:07.931Z,1002.58
2017-08-03T10:00:07.929Z,1002.69
2017-08-03T10:01:07.918Z,1002.71
2017-08-03T10:02:07.913Z,1002.72
2017-08-03T10:03:07.906Z,1002.63
2017-08-03T10:04:07.895Z,1002.61
2017-08-03T10:05:07.887Z,1002.62
2017-08-03T10:06:07.879Z,1002.59
2017-08-03T10:07:07.879Z,1002.57
2017-08-03T10:08:07.863Z,1002.56
2017-08-03T10:09:07.859Z,1002.53
2017-08-03T10:10:07.857Z,1002.59
2017-08-03T10:11:07.847Z,1002.52
2017-08-03T10:12:07.835Z,1002.49
2017-08-03T10:13:07.830Z,1002.44
2017-08-03T10:14:07.821Z,1002.5
2017-08-03T10:15:07.811Z,1002.46
2017-08-03T10:16:07.797Z,1002.53
2017-08-03T10:17:07.798Z,1002.53
2017-08-03T10:18:07.783Z,1002.61
2017-08-03T10:19:07.779Z,1002.56
2017-08-03T10:20:07.768Z,1002.52
2017-08-03T10:21:07.758Z,1002.63
2017-08-03T10:22:07.748Z,1002.71
2017-08-03T10:23:07.744Z,1002.57
2017-08-03T10:24:07.737Z,1002.56
2017-08-03T10:25:07.732Z,1002.61
2017-08-03T10:26:07.717Z,1002.58
2017-08-03T10:27:07.708Z,1002.52
2017-08-03T10:28:07.695Z,1002.57
2017-08-03T10:29:07.689Z,1002.45
2017-08-03T10:30:07.678Z,1002.55
2017-08-03T10:31:07.668Z,1002.68
2017-08-03T10:32:07.658Z,1002.65
2017-08-03T10:33:07.644Z,1002.5
2017-08-03T10:34:07.637Z,1002.39
2017-08-03T10:35:07.632Z,1002.42
2017-08-03T10:36:07.616Z,1002.45
2017-08-03T10:37:07.608Z,1002.43
2017-08-03T10:38:07.595Z,1002.6
2017-08-03T10:39:07.589Z,1002.51
2017-08-03T10:40:07.579Z,1002.58
2017-08-03T10:41:07.582Z,1002.51
2017-08-03T10:42:07.560Z,1002.47
2017-08-03T10:43:07.551Z,1002.4
2017-08-03T10:44:07.548Z,1002.47
2017-08-03T10:45:07.539Z,1002.48
2017-08-03T10:46:07.526Z,1002.4
2017-08-03T10:47:07.519Z,1002.4
2017-08-03T10:48:07.509Z,1002.35
2017-08-03T10:49:07.496Z,1002.34
2017-08-03T10:50:07.487Z,1002.35
2017-08-03T10:51:07.476Z,1002.35
2017-08-03T10:52:07.468Z,1002.44
2017-08-03T10:53:07.459Z,1002.42
2017-08-03T10:54:07.449Z,1002.32
2017-08-03T10:55:07.441Z,1002.4
2017-08-03T10:56:07.428Z,1002.35
2017-08-03T10:57:07.420Z,1002.36
2017-08-03T10:58:07.412Z,1002.35
2017-08-03T10:59:07.396Z,1002.42
2017-08-03T11:00:07.393Z,1002.4
2017-08-03T11:01:07.377Z,1002.4
2017-08-03T11:02:07.365Z,1002.43
2017-08-03T11:03:07.361Z,1002.41
2017-08-03T11:04:07.346Z,1002.45
2017-08-03T11:05:07.335Z,1002.38
2017-08-03T11:06:07.324Z,1002.36
2017-08-03T11:07:07.315Z,1002.44
2017-08-03T11:08:07.302Z,1002.52
2017-08-03T11:09:07.291Z,1002.41
2017-08-03T11:10:07.283Z,1002.5
2017-08-03T11:11:07.269Z,1002.51
2017-08-03T11:12:07.262Z,1002.48
2017-08-03T11:13:07.251Z,1002.57
2017-08-03T11:14:07.243Z,1002.73
2017-08-03T11:15:07.227Z,1002.61
2017-08-03T11:16:07.221Z,1002.76
2017-08-03T11:17:07.205Z,1002.68
2017-08-03T11:18:07.192Z,1002.69
2017-08-03T11:19:07.180Z,1002.73
2017-08-03T11:20:07.174Z,1002.76
2017-08-03T11:21:07.162Z,1002.69
2017-08-03T11:22:07.158Z,1002.75
2017-08-03T11:23:07.152Z,1002.7
2017-08-03T11:24:07.129Z,1002.7
2017-08-03T11:25:07.119Z,1002.72
2017-08-03T11:26:07.103Z,1002.76
2017-08-03T11:27:07.097Z,1002.88
2017-08-03T11:28:07.080Z,1002.86
2017-08-03T11:29:07.073Z,1002.84
2017-08-03T11:30:07.055Z,1002.88
2017-08-03T11:31:07.051Z,1002.93
2017-08-03T11:32:07.039Z,1002.96
2017-08-03T11:33:07.024Z,1003.01
2017-08-03T11:34:07.006Z,1003.02
2017-08-03T11:35:07.015Z,1003.04
2017-08-03T11:36:06.990Z,1003.07
2017-08-03T11:37:06.976Z,1003.06
2017-08-03T11:38:06.961Z,1003.07
2017-08-03T11:39:06.964Z,1002.98
2017-08-03T11:40:06.940Z,1003.11
2017-08-03T11:41:07.027Z,1003.1
2017-08-03T11:42:06.916Z,1003.17
2017-08-03T11:43:07.012Z,1003.16
2017-08-03T11:44:06.891Z,1003.13
2017-08-03T11:45:06.883Z,1003.25
2017-08-03T11:46:06.871Z,1003.17
2017-08-03T11:47:06.910Z,1003.11
2017-08-03T11:48:06.846Z,1003.2
2017-08-03T11:49:06.886Z,1003.18
2017-08-03T11:50:06.821Z,1003.23
2017-08-03T11:51:06.811Z,1003.29
2017-08-03T11:52:06.798Z,1003.3
2017-08-03T11:53:06.792Z,1003.46
2017-08-03T11:54:06.775Z,1003.35
2017-08-03T11:55:06.768Z,1003.32
2017-08-03T11:56:06.751Z,1003.37
2017-08-03T11:57:06.742Z,1003.35
2017-08-03T11:58:06.728Z,1003.35
2017-08-03T11:59:06.713Z,1003.25
2017-08-03T12:00:06.706Z,1003.26
2017-08-03T12:01:06.698Z,1003.25
2017-08-03T12:02:06.681Z,1003.23
2017-08-03T12:03:06.668Z,1003.2
2017-08-03T12:04:06.659Z,1003.23
2017-08-03T12:05:06.643Z,1003.16
2017-08-03T12:06:06.637Z,1003.24
2017-08-03T12:07:06.621Z,1003.19
2017-08-03T12:08:06.617Z,1003.16